Aeroporto :
LOGIN :

Iscrizione | Disclaimer

   EN    FR    IT 

 










Sommario :    VFR   VFR Marginale   IFR   IFR Intensivo   IFR Molto Intensivo
Visibilità : 
Base nubi : 
>= 8 km
>= 3000ft
5 / 8 km
1000 / 3000 ft
1500m / 5 km
500 / 1000 ft
800 / 1500m
200 / 500 ft
< 800m
< 200 ft
Simboli :   Temporali  Nebbia  Neve Forte  Precipitazioni Forti  Vento > 20 kt
SIGMETs :   Varie  Temporali  Ghiacco  Turbolenza  Onda orograficha  Ceneri Vulcaniche






- Altitudine del aeroporto : 1682 ft
- Codice IATA : VIT


LEVT - Vitoria Gasteiz

ULTIMO METAR :
  • 250030Z 15001KT 7000 NSC 03/01 Q1021

METARs OBSOLETI :
  • 250000Z 29004KT 9000 NSC 03/01 Q1021
  • 242330Z 36003KT 330V060 6000 NSC 04/02 Q1021
  • 242300Z 02002KT 6000 NSC 05/03 Q1022
  • 242230Z 03005KT 6000 NSC 04/02 Q1022
  • 242200Z 06005KT 6000 NSC 05/03 Q1023

TAF TAF LEVT
Valido dal 25 a 00 ore il 26 a 00 ore UTC


242300Z 2500/2524 VRB03KT 6000 NSC TX12/2514Z TNM02/2504Z
BECMG 2511/2514 33010KT
PROB40
TEMPO 2500/2509 0350 FG FZFG VV001
PROB40
TEMPO 2500/2509 3000 BR BKN005
PROB40
TEMPO 2506/2518 3000 -RADZ BKN010 BKN014



MetMap, La meteo Aeronautica in un colpo d'occhio ! - Copyright ORBIFLY Dicembre 2007 - Disclaimer

ORBIFLY MET'MAP TEAM :

Programmazione e sviluppo : Alexandra Zaïnal
Concezione : Baudouin d'Aumeries
Aiuto per la programmazione : Marc-Olivier Méhu
Supporto tecnico e logistico : Manuel Goepfert
Aiuto per la traduzione : Arnaldo La Scala

Contatto : metmap@orbifly.com




FONTI E CREDITI :

   NOAA